Gianluca Ferri

Jefe de ojeadores - Atalanta
13 Abr 2028
Jueves
Continuar

Personalidad

Adaptabilidad (3) Ambición (1) Controversia (1) Lealtad (17) Presión (9) Profesionalismo (13) Deportividad (1) Temperamento (16)

Perfil

Estilo de dirección Democrático
Licencia Continental C
Determinación 6
Gestión de personas 6
Motivación 11
Disciplina 8
Satisfacción laboral
100%
Fatiga
0%
Cargo Jefe de ojeadores
Salario 20.1K p/s
Contrato 14.03.2030

Rendimiento

Comportamiento Bueno
Efectividad del entrenamiento
56%
Desarrollo de jugadores
65%
Prevención de lesiones
35%
Implementación táctica
65%

Actualmente siguiendo

92
Jugador Club Estado Habilidad Confianza Observado Última observación Último voto
Rio Ngumoha Brentford Activo 149 / 149 40% 1 31.01.2028 -
Landerson Moreirense Activo 98 / 120 40% 1 31.01.2028 -
Harrison Bettoni Wigan Athletic Activo 106 / 104 40% 1 24.01.2028 -
Konstantinos Karetsas Borussia Dortmund Activo 130 / 139 40% 1 24.01.2028 -
Davide Bartesaghi AC Milan Activo 126 / 142 55% 1 17.01.2028 -
Jere Vrcić Birkirkara Activo 101 / 101 40% 1 17.01.2028 -
Tommaso Baldanzi AS Roma Activo 145 / 155 40% 1 17.01.2028 -
Martín Jiménez Audax Italiano Activo 95 / 111 40% 1 06.01.2028 -
Finn Jeltsch VfB Stuttgart Activo 143 / 138 40% 2 01.01.2028 -
Matvey Bardachev Zenit Activo 113 / 109 40% 1 01.01.2028 -
Matteo Palma Udinese Activo 115 / 125 40% 1 31.08.2027 -
Vitor Reis Manchester City Activo 140 / 136 40% 1 31.08.2027 -
Tyson Pearce St. Louis CITY SC Activo 106 / 105 40% 1 27.08.2027 -
Yannick Geiger BK Hacken Activo 91 / 97 40% 1 26.08.2027 -
Uche Jaguar Ikorodu City Activo 80 / 103 40% 1 25.08.2027 -
Mateo Martínez Wanderers Activo 99 / 90 40% 1 24.08.2027 -
Sunday Aniebet Enyimba Activo 94 / 91 40% 1 24.08.2027 -
Gideon Manaseh Ikorodu City Activo 73 / 86 40% 1 23.08.2027 -
Nicolás Barros Schelotto Gimnasia La Plata Activo 121 / 117 40% 1 22.08.2027 -
Josh King Chelsea Activo 143 / 146 40% 1 22.08.2027 -
Pau Cubarsí Barcelona Activo 149 / 169 40% 1 21.08.2027 -
Jon Esenga IF Elfsborg Activo 105 / 105 40% 1 21.08.2027 -
Giovanni Baroni Vélez Activo 117 / 119 40% 2 18.08.2027 -
Alejandro Almaraz Oviedo Activo 115 / 114 40% 2 16.08.2027 -
Dilan Acosta Defensores Activo 84 / 112 40% 1 15.08.2027 -
Kirill Glebov CSKA Moscow Activo 124 / 133 40% 1 14.08.2027 -
Filippo Reale AS Roma Activo 98 / 108 40% 1 13.08.2027 -
Simone Kosijer Triestina Activo 111 / 108 40% 1 13.08.2027 -
Juan Oviedo Gimnasia y Tiro Activo 86 / 102 40% 1 12.08.2027 -
Mateo Aguiar Defensa y Justicia Activo 128 / 125 40% 1 10.08.2027 -
Mattia Puzone Siracusa Activo 112 / 105 40% 1 10.08.2027 -
Somto Boniface Ipswich Town Activo 118 / 120 40% 1 09.08.2027 -
Brandon Powell Blackburn Rovers Activo 119 / 125 40% 1 04.08.2027 -
Axel Tape Bayer Leverkusen Activo 127 / 144 40% 4 31.07.2027 -
Souza Tottenham Activo 128 / 126 40% 2 31.07.2027 -
Simone Lottici Tessadri Nimes Activo 92 / 87 40% 1 31.07.2027 -
Ravshan Xayrullayev Bukhara Activo 82 / 103 40% 1 29.07.2027 -
Ivan Lopez Libertad Activo 105 / 94 40% 1 27.07.2027 -
Dylan Gorosito Boca Juniors Activo 93 / 121 40% 1 24.07.2027 -
Niccolò Fortini Fiorentina Activo 130 / 141 40% 2 23.07.2027 -
Gorka Gorosabel Real Sociedad Activo 103 / 121 40% 1 17.07.2027 -
Ollie Scarles West Ham United Activo 138 / 130 40% 1 16.07.2027 -
Lucas Duré Montevideo City Torque Activo 98 / 108 40% 1 16.07.2027 -
Lucas Camilo Puebla Activo 98 / 82 40% 1 16.07.2027 -
Olti Hyseni Brondby Activo 107 / 134 40% 2 15.07.2027 -
Alysson Edward Aston Villa Activo 130 / 130 40% 1 15.07.2027 -
Federico Coletta Benfica Activo 110 / 116 40% 1 15.07.2027 -
Joseph Opoku Swansea City Activo 118 / 128 40% 1 11.07.2027 -
George Abbott Tottenham Activo 108 / 132 40% 1 09.07.2027 -
Jano Aguiar Colón Activo 82 / 87 40% 1 02.07.2027 -
Iván Barbona Colón Activo 106 / 102 40% 1 02.07.2027 -
Ezra Mayers West Ham United Activo 108 / 133 40% 1 29.06.2027 -
Eliás Montiel Athletic Bilbao Activo 125 / 145 40% 1 29.06.2027 -
Valentino Massi Sarmiento Activo 117 / 108 40% 1 27.06.2027 -
Aleksander Wyganowski Legia Activo 87 / 109 40% 1 24.06.2027 -
Matija Frigan Parma Activo 131 / 122 40% 3 23.06.2027 -
Henrik Meister AC Milan Activo 129 / 130 40% 1 22.06.2027 -
Harry Amass Manchester United Activo 129 / 148 40% 1 22.06.2027 -
Gonçalo Sousa Porto Activo 118 / 121 40% 1 22.06.2027 -
Harry Smith Manchester City Activo 95 / 112 40% 2 19.06.2027 -
Petar Ratkov Lazio Activo 129 / 124 40% 2 15.06.2027 -
Robinio Vaz AS Roma Activo 129 / 122 40% 2 12.06.2027 -
Alan Coria Villarreal Activo 113 / 120 40% 1 11.06.2027 -
Lewis Koumas Liverpool Activo 119 / 118 40% 1 10.06.2027 -
Harley Mills Peterborough United Activo 104 / 111 40% 1 08.06.2027 -
David Romero Parma Activo 114 / 131 40% 2 06.06.2027 -
Mohamed Touré Viktoria Plzen Activo 96 / 104 40% 1 06.06.2027 -
Damola Ajayi Tottenham Activo 104 / 113 40% 1 06.06.2027 -
Luciano Inverso Valencia Activo 110 / 126 40% 2 31.01.2027 -
Agustín Anello Spartak Moscow Activo 116 / 126 40% 1 31.01.2027 -
Matvey Kislyak CSKA Moscow Activo 140 / 133 40% 2 30.01.2027 -
Cristian Shpendi Cesena Activo 144 / 123 40% 2 29.01.2027 -
Yaroslav Gladyshev Dinamo Moscow Perdido 132 / 128 40% 1 29.01.2027 -
Mattia Mannini Juve Stabia Activo 123 / 122 40% 2 21.01.2027 -
Borna Knezović Casarano Activo 91 / 106 40% 1 21.01.2027 -
Monty Batlhabane Polokwane City Activo 83 / 98 40% 1 21.01.2027 -
Morgan Kekana Free State Stars Activo 106 / 97 40% 1 19.01.2027 -
Morgan Manyama SuperSport United Activo 125 / 132 40% 2 18.01.2027 -
Lucas Ferreira Shakhtar Activo 120 / 123 40% 1 18.01.2027 -
Jonathan Rowe Bologna Activo 147 / 135 40% 1 13.01.2027 -
Araphat Mohammed Ashanti Gold Activo 100 / 99 40% 1 10.01.2027 -
Dramane Kamagaté USM Alger Activo 105 / 124 40% 1 10.01.2027 -
Luca Lipani Udinese Activo 113 / 133 40% 1 06.01.2027 -
Stefano Di Mario Virtus Entella Activo 123 / 114 40% 1 31.08.2026 Más información
Malick Fofana Olympique Lyonnais Activo 140 / 137 40% 1 28.08.2026 -
Ignacio Perruzzi San Lorenzo Activo 127 / 143 40% 1 27.08.2026 -
Jan Ziółkowski AS Roma Activo 131 / 115 40% 2 24.08.2026 -
Arijanet Murić Sassuolo Activo 123 / 129 51% 1 24.08.2026 -
Jaydee Canvot Crystal Palace Activo 115 / 133 40% 1 22.08.2026 -
Elías Báez Atlanta United FC Activo 138 / 115 40% 1 19.08.2026 -
Alex Matos Burnley Activo 109 / 137 40% 1 18.08.2026 -
Yarek Gąsiorowski PSV Activo 121 / 144 40% 1 01.08.2026 -